Time;durP1;ratioP1;P1;durP2;ratioP2;P2;SDS_P1;SDS_P2;PMS_P1;PMS_P2;Temp;Humidity;BMP_temperature;BMP_pressure;BME280_temperature;BME280_humidity;BME280_pressure;Samples;Min_cycle;Max_cycle;Signal;HPM_P1;HPM_P2
2021/01/24 00:00:07;;;;;;;30.30;18.42;;;;;;;;;;1040235;28;20590;-88
2021/01/24 00:00:40;;;;;;;27.48;18.00;;;;;;;;;;1042492;28;20469;-88
2021/01/24 00:01:11;;;;;;;26.15;18.08;;;;;;;;;;1040346;28;20056;-89
2021/01/24 00:01:43;;;;;;;27.05;18.20;;;;;;;;;;1035996;28;20050;-88
2021/01/24 00:02:14;;;;;;;31.13;18.05;;;;;;;;;;1037789;28;20045;-89
2021/01/24 00:02:49;;;;;;;27.55;18.15;;;;;;;;;;1040507;28;20414;-88
2021/01/24 00:03:22;;;;;;;26.33;18.40;;;;;;;;;;1032648;28;20049;-88
2021/01/24 00:03:55;;;;;;;27.90;17.90;;;;;;;;;;1038112;28;20046;-88
2021/01/24 00:04:29;;;;;;;30.83;19.05;;;;;;;;;;1048108;28;20095;-88
2021/01/24 00:05:04;;;;;;;24.95;18.13;;;;;;;;;;1040947;28;20050;-89
2021/01/24 00:05:38;;;;;;;30.33;18.63;;;;;;;;;;1039125;28;20139;-88
2021/01/24 00:06:09;;;;;;;28.13;17.70;;;;;;;;;;1043821;28;20520;-88
2021/01/24 00:06:41;;;;;;;28.23;17.80;;;;;;;;;;1032161;28;20058;-88
2021/01/24 00:07:12;;;;;;;31.80;20.00;;;;;;;;;;1036284;28;20100;-88
2021/01/24 00:07:45;;;;;;;28.65;18.60;;;;;;;;;;1032357;28;20135;-88
2021/01/24 00:08:16;;;;;;;26.80;19.25;;;;;;;;;;1036369;28;20139;-88
2021/01/24 00:08:48;;;;;;;28.98;18.75;;;;;;;;;;1036387;28;20670;-88
2021/01/24 00:09:19;;;;;;;30.00;19.67;;;;;;;;;;1040711;28;20053;-88
2021/01/24 00:09:50;;;;;;;26.92;18.15;;;;;;;;;;1036897;28;20053;-89
2021/01/24 00:10:23;;;;;;;30.85;18.88;;;;;;;;;;1037667;28;20418;-89
2021/01/24 00:10:55;;;;;;;39.70;20.13;;;;;;;;;;1037779;28;20172;-89
2021/01/24 00:11:26;;;;;;;27.67;18.95;;;;;;;;;;1040194;28;20049;-89
2021/01/24 00:11:57;;;;;;;27.27;19.15;;;;;;;;;;1037242;28;20057;-89
2021/01/24 00:12:30;;;;;;;31.90;18.90;;;;;;;;;;1040799;28;20049;-89
2021/01/24 00:13:01;;;;;;;22.70;18.05;;;;;;;;;;1036817;28;20046;-88
2021/01/24 00:13:32;;;;;;;30.05;18.23;;;;;;;;;;1040046;28;20151;-88
2021/01/24 00:14:04;;;;;;;34.45;20.05;;;;;;;;;;1040045;28;20081;-88
2021/01/24 00:14:35;;;;;;;26.13;18.92;;;;;;;;;;1040124;28;20179;-88
2021/01/24 00:15:07;;;;;;;28.42;18.33;;;;;;;;;;1039267;28;20053;-88
2021/01/24 00:15:38;;;;;;;27.27;18.92;;;;;;;;;;1040130;28;20053;-89
2021/01/24 00:16:10;;;;;;;31.40;20.52;;;;;;;;;;1044198;28;20501;-88
2021/01/24 00:16:42;;;;;;;27.48;16.85;;;;;;;;;;1041441;28;20119;-88
2021/01/24 00:17:15;;;;;;;29.00;16.13;;;;;;;;;;1036133;28;20046;-88
2021/01/24 00:17:49;;;;;;;22.55;16.35;;;;;;;;;;1036251;28;20543;-88
2021/01/24 00:18:20;;;;;;;23.50;14.57;;;;;;;;;;1044125;28;20053;-89
2021/01/24 00:18:53;;;;;;;28.35;17.65;;;;;;;;;;1044342;28;20049;-88
2021/01/24 00:19:24;;;;;;;30.77;19.02;;;;;;;;;;1035811;28;20426;-89
2021/01/24 00:19:56;;;;;;;30.55;18.23;;;;;;;;;;1040180;28;20056;-89
2021/01/24 00:20:27;;;;;;;27.08;16.73;;;;;;;;;;1044317;28;20045;-88
2021/01/24 00:21:00;;;;;;;26.70;15.98;;;;;;;;;;1044303;28;20060;-89
2021/01/24 00:21:34;;;;;;;23.45;15.45;;;;;;;;;;1046008;28;20080;-89
2021/01/24 00:22:05;;;;;;;23.73;16.45;;;;;;;;;;1043995;28;20052;-89
2021/01/24 00:22:37;;;;;;;23.33;16.00;;;;;;;;;;1040224;28;20049;-89
2021/01/24 00:23:08;;;;;;;28.23;17.52;;;;;;;;;;1042371;28;20050;-89
2021/01/24 00:23:39;;;;;;;29.08;19.77;;;;;;;;;;1040282;28;20050;-89
2021/01/24 00:24:10;;;;;;;36.30;19.23;;;;;;;;;;1040144;28;20057;-89
2021/01/24 00:24:41;;;;;;;26.13;18.63;;;;;;;;;;1037669;28;20510;-89
2021/01/24 00:25:13;;;;;;;25.35;17.95;;;;;;;;;;1036362;28;20050;-89
2021/01/24 00:25:47;;;;;;;30.00;18.50;;;;;;;;;;1040156;28;20053;-89
2021/01/24 00:26:18;;;;;;;31.83;18.65;;;;;;;;;;1037724;28;20049;-89
2021/01/24 00:26:49;;;;;;;31.63;17.40;;;;;;;;;;1040093;28;20049;-89
2021/01/24 00:27:21;;;;;;;27.95;14.95;;;;;;;;;;1036135;28;20514;-90
2021/01/24 00:27:54;;;;;;;29.23;18.05;;;;;;;;;;1035872;28;20049;-89
2021/01/24 00:28:26;;;;;;;26.20;16.50;;;;;;;;;;1035887;28;20050;-90
2021/01/24 00:28:57;;;;;;;28.83;18.48;;;;;;;;;;1036108;28;20053;-89
2021/01/24 00:29:28;;;;;;;26.75;17.13;;;;;;;;;;1040884;28;20045;-89
2021/01/24 00:29:59;;;;;;;26.27;15.70;;;;;;;;;;1037422;28;20524;-88
2021/01/24 00:30:30;;;;;;;26.50;17.63;;;;;;;;;;1040242;28;20203;-90
2021/01/24 00:31:01;;;;;;;26.25;16.45;;;;;;;;;;1040035;28;20175;-89
2021/01/24 00:31:33;;;;;;;23.70;17.65;;;;;;;;;;1040253;28;20065;-89
2021/01/24 00:32:05;;;;;;;30.50;18.05;;;;;;;;;;1044174;28;20053;-89
2021/01/24 00:32:36;;;;;;;27.10;19.25;;;;;;;;;;1040045;28;20049;-89
2021/01/24 00:33:07;;;;;;;25.30;16.55;;;;;;;;;;1036188;28;20050;-90
2021/01/24 00:33:39;;;;;;;27.98;17.40;;;;;;;;;;1044174;28;20149;-90
2021/01/24 00:34:10;;;;;;;28.00;18.77;;;;;;;;;;1036116;28;20089;-88
2021/01/24 00:34:42;;;;;;;24.77;17.05;;;;;;;;;;1035846;28;20049;-89
2021/01/24 00:35:13;;;;;;;25.60;17.45;;;;;;;;;;1040075;28;20102;-89
2021/01/24 00:35:45;;;;;;;29.27;18.83;;;;;;;;;;1040282;28;20078;-89
2021/01/24 00:36:20;;;;;;;26.08;17.38;;;;;;;;;;1040163;28;20103;-90
2021/01/24 00:36:52;;;;;;;22.60;14.38;;;;;;;;;;1033997;28;20445;-89
2021/01/24 00:37:23;;;;;;;26.30;14.95;;;;;;;;;;1040054;28;20055;-89
2021/01/24 00:37:54;;;;;;;25.98;16.65;;;;;;;;;;1036544;28;20054;-89
2021/01/24 00:38:25;;;;;;;28.63;17.08;;;;;;;;;;1041937;28;20050;-89
2021/01/24 00:38:56;;;;;;;22.48;16.58;;;;;;;;;;1048405;28;20052;-89
2021/01/24 00:39:27;;;;;;;25.65;17.13;;;;;;;;;;1045317;28;20048;-89
2021/01/24 00:39:59;;;;;;;28.73;17.65;;;;;;;;;;1040595;28;20403;-89
2021/01/24 00:40:30;;;;;;;24.02;17.38;;;;;;;;;;1044003;28;20052;-89
2021/01/24 00:41:04;;;;;;;22.20;14.15;;;;;;;;;;1040162;28;20041;-89
2021/01/24 00:41:35;;;;;;;29.63;17.98;;;;;;;;;;1036095;28;20123;-89
2021/01/24 00:42:06;;;;;;;27.50;16.85;;;;;;;;;;1039957;28;20076;-89
2021/01/24 00:42:38;;;;;;;31.85;20.35;;;;;;;;;;1042733;28;20080;-90
2021/01/24 00:43:09;;;;;;;28.75;18.13;;;;;;;;;;1036210;28;20089;-89
2021/01/24 00:43:40;;;;;;;29.90;18.55;;;;;;;;;;1040490;28;20196;-88
2021/01/24 00:44:12;;;;;;;28.08;19.13;;;;;;;;;;1041230;28;20056;-89
2021/01/24 00:44:43;;;;;;;29.75;18.00;;;;;;;;;;1034696;28;20117;-89
2021/01/24 00:45:14;;;;;;;32.05;19.08;;;;;;;;;;1037720;28;20506;-88
2021/01/24 00:45:45;;;;;;;31.17;17.95;;;;;;;;;;1039659;28;20172;-89
2021/01/24 00:46:16;;;;;;;27.77;18.75;;;;;;;;;;1040949;28;20049;-89
2021/01/24 00:46:47;;;;;;;19.40;12.43;;;;;;;;;;1045241;28;20481;-90
2021/01/24 00:47:22;;;;;;;18.73;11.85;;;;;;;;;;1036870;28;20113;-91
2021/01/24 00:47:53;;;;;;;26.80;16.88;;;;;;;;;;1041176;28;20072;-90
2021/01/24 00:48:25;;;;;;;30.85;19.92;;;;;;;;;;1041211;28;20512;-90
2021/01/24 00:48:56;;;;;;;29.27;19.33;;;;;;;;;;1040037;28;20092;-90
2021/01/24 00:49:27;;;;;;;29.77;20.27;;;;;;;;;;1036983;28;20113;-90
2021/01/24 00:50:01;;;;;;;33.03;21.77;;;;;;;;;;1033013;28;20137;-90
2021/01/24 00:50:32;;;;;;;32.22;18.55;;;;;;;;;;1035288;28;20109;-91
2021/01/24 00:51:07;;;;;;;20.77;12.63;;;;;;;;;;1037194;28;20062;-90
2021/01/24 00:51:39;;;;;;;23.88;18.55;;;;;;;;;;1032736;28;20047;-90
2021/01/24 00:52:10;;;;;;;37.28;17.75;;;;;;;;;;1036742;28;20046;-91
2021/01/24 00:52:41;;;;;;;25.05;15.85;;;;;;;;;;1041024;28;20052;-90
2021/01/24 00:53:12;;;;;;;34.22;18.38;;;;;;;;;;1040902;28;20114;-90
2021/01/24 00:53:43;;;;;;;32.55;20.38;;;;;;;;;;1037004;28;20061;-90
2021/01/24 00:54:21;;;;;;;30.92;20.85;;;;;;;;;;1041126;28;20132;-90
2021/01/24 00:54:52;;;;;;;26.63;16.90;;;;;;;;;;1037029;28;20045;-91
2021/01/24 00:55:23;;;;;;;27.55;18.45;;;;;;;;;;1037173;28;20045;-90
2021/01/24 00:55:55;;;;;;;29.33;19.17;;;;;;;;;;1044994;28;20052;-90
2021/01/24 00:56:26;;;;;;;30.50;19.60;;;;;;;;;;1041721;28;20135;-90
2021/01/24 00:56:57;;;;;;;30.90;21.42;;;;;;;;;;1036783;28;20140;-89
2021/01/24 00:57:28;;;;;;;33.20;22.20;;;;;;;;;;1041009;28;20474;-89
2021/01/24 00:57:59;;;;;;;32.83;20.83;;;;;;;;;;1036978;28;20108;-90
2021/01/24 00:58:33;;;;;;;31.25;22.38;;;;;;;;;;1041069;28;20045;-90
2021/01/24 00:59:04;;;;;;;38.17;21.00;;;;;;;;;;1040825;28;20140;-89
2021/01/24 00:59:38;;;;;;;28.92;20.98;;;;;;;;;;1036989;28;20050;-89
2021/01/24 01:00:09;;;;;;;32.20;20.88;;;;;;;;;;1045055;28;20437;-89
2021/01/24 01:00:41;;;;;;;34.25;22.60;;;;;;;;;;1042893;28;20063;-90
2021/01/24 01:01:14;;;;;;;33.88;21.88;;;;;;;;;;1036805;28;20127;-89
2021/01/24 01:01:45;;;;;;;27.48;18.67;;;;;;;;;;1036765;28;20060;-90
2021/01/24 01:02:17;;;;;;;31.50;20.70;;;;;;;;;;1041748;28;20401;-90
2021/01/24 01:02:48;;;;;;;28.48;21.02;;;;;;;;;;1053409;28;20048;-90
2021/01/24 01:03:19;;;;;;;28.05;18.25;;;;;;;;;;1049690;28;20048;-90
2021/01/24 01:03:50;;;;;;;32.35;20.48;;;;;;;;;;1045624;28;20045;-89
2021/01/24 01:04:22;;;;;;;40.05;22.80;;;;;;;;;;1037185;28;20085;-91
2021/01/24 01:04:53;;;;;;;32.25;21.83;;;;;;;;;;1032896;28;20479;-91
2021/01/24 01:05:24;;;;;;;30.42;20.02;;;;;;;;;;1043657;28;20481;-90
2021/01/24 01:05:55;;;;;;;29.25;21.50;;;;;;;;;;1044926;28;20508;-90
2021/01/24 01:06:26;;;;;;;27.55;18.65;;;;;;;;;;1045114;28;20131;-90
2021/01/24 01:06:58;;;;;;;26.80;19.25;;;;;;;;;;1041348;28;20073;-90
2021/01/24 01:07:31;;;;;;;37.08;23.00;;;;;;;;;;1036824;28;20046;-90
2021/01/24 01:08:02;;;;;;;37.75;22.42;;;;;;;;;;1040859;28;20569;-90
2021/01/24 01:08:33;;;;;;;32.03;20.58;;;;;;;;;;1038979;28;20050;-90
2021/01/24 01:09:05;;;;;;;29.00;20.58;;;;;;;;;;1039908;28;20102;-88
2021/01/24 01:09:36;;;;;;;30.92;22.13;;;;;;;;;;1045031;28;20055;-89
2021/01/24 01:10:07;;;;;;;31.30;20.00;;;;;;;;;;1047880;28;20053;-90
2021/01/24 01:10:39;;;;;;;27.10;19.60;;;;;;;;;;1044336;28;20051;-91
2021/01/24 01:11:10;;;;;;;29.17;19.67;;;;;;;;;;1045559;28;20045;-89
2021/01/24 01:11:41;;;;;;;43.25;21.92;;;;;;;;;;1041527;28;20045;-90
2021/01/24 01:12:12;;;;;;;25.00;17.08;;;;;;;;;;1040906;28;20049;-90
2021/01/24 01:12:44;;;;;;;25.13;17.95;;;;;;;;;;1040373;28;20045;-89
2021/01/24 01:13:15;;;;;;;37.42;21.95;;;;;;;;;;1041320;28;20051;-89
2021/01/24 01:13:46;;;;;;;32.72;22.27;;;;;;;;;;1040844;28;20076;-90
2021/01/24 01:14:17;;;;;;;28.40;20.48;;;;;;;;;;1039352;28;20085;-89
2021/01/24 01:14:50;;;;;;;30.98;21.27;;;;;;;;;;1041218;28;20045;-90
2021/01/24 01:15:23;;;;;;;29.40;20.38;;;;;;;;;;1037491;28;20141;-89
2021/01/24 01:15:54;;;;;;;30.05;17.48;;;;;;;;;;1042270;28;20049;-90
2021/01/24 01:16:25;;;;;;;28.65;19.42;;;;;;;;;;1042612;28;20049;-90
2021/01/24 01:16:57;;;;;;;30.90;19.25;;;;;;;;;;1042075;28;20057;-89
2021/01/24 01:17:28;;;;;;;31.20;16.95;;;;;;;;;;1045155;28;20401;-90
2021/01/24 01:18:03;;;;;;;28.02;18.70;;;;;;;;;;1041233;28;20049;-88
2021/01/24 01:18:34;;;;;;;30.63;19.95;;;;;;;;;;1040801;28;20060;-89
2021/01/24 01:19:05;;;;;;;24.63;17.42;;;;;;;;;;1040950;28;20081;-90
2021/01/24 01:19:39;;;;;;;28.40;18.73;;;;;;;;;;1042364;28;20056;-89
2021/01/24 01:20:11;;;;;;;29.48;19.35;;;;;;;;;;1037620;28;20045;-89
2021/01/24 01:20:42;;;;;;;28.17;18.27;;;;;;;;;;1036734;28;20180;-89
2021/01/24 01:21:13;;;;;;;27.55;19.85;;;;;;;;;;1035660;28;20133;-89
2021/01/24 01:21:44;;;;;;;28.05;18.73;;;;;;;;;;1036836;28;20514;-89
2021/01/24 01:22:17;;;;;;;29.38;19.95;;;;;;;;;;1037071;28;20056;-89
2021/01/24 01:22:51;;;;;;;25.52;18.75;;;;;;;;;;1035403;28;20119;-89
2021/01/24 01:23:22;;;;;;;29.80;18.75;;;;;;;;;;1035568;28;20050;-89
2021/01/24 01:23:53;;;;;;;29.50;19.17;;;;;;;;;;1036649;28;20046;-89
2021/01/24 01:24:24;;;;;;;29.55;19.75;;;;;;;;;;1037155;28;20099;-88
2021/01/24 01:25:00;;;;;;;25.95;19.75;;;;;;;;;;1036494;28;20059;-89
2021/01/24 01:25:31;;;;;;;26.65;16.63;;;;;;;;;;1036779;28;20054;-88
2021/01/24 01:26:03;;;;;;;27.77;18.95;;;;;;;;;;1039362;28;20073;-89
2021/01/24 01:26:35;;;;;;;29.17;18.35;;;;;;;;;;1037877;28;20089;-89
2021/01/24 01:27:06;;;;;;;29.65;17.85;;;;;;;;;;1037027;28;20053;-88
2021/01/24 01:27:39;;;;;;;27.92;18.27;;;;;;;;;;1038915;28;20057;-88
2021/01/24 01:28:10;;;;;;;26.40;18.83;;;;;;;;;;1041418;28;20143;-88
2021/01/24 01:28:41;;;;;;;29.35;18.75;;;;;;;;;;1040768;28;20073;-89
2021/01/24 01:29:12;;;;;;;25.73;16.83;;;;;;;;;;1039236;28;20084;-89
2021/01/24 01:29:45;;;;;;;29.23;18.60;;;;;;;;;;1032869;28;20065;-89
2021/01/24 01:30:19;;;;;;;28.75;17.52;;;;;;;;;;1032742;28;20096;-89
2021/01/24 01:30:50;;;;;;;27.52;17.08;;;;;;;;;;1038663;28;20053;-88
2021/01/24 01:31:21;;;;;;;23.92;15.27;;;;;;;;;;1036531;28;20129;-89
2021/01/24 01:31:52;;;;;;;22.73;15.45;;;;;;;;;;1037544;28;20589;-88
2021/01/24 01:32:24;;;;;;;19.83;13.52;;;;;;;;;;1042744;28;20529;-90
2021/01/24 01:32:55;;;;;;;23.90;15.20;;;;;;;;;;1036590;28;20084;-89
2021/01/24 01:33:26;;;;;;;21.52;13.90;;;;;;;;;;1036401;28;20129;-89
2021/01/24 01:33:57;;;;;;;18.95;13.98;;;;;;;;;;1040740;28;20390;-89
2021/01/24 01:34:28;;;;;;;20.92;14.13;;;;;;;;;;1040907;28;20636;-89
2021/01/24 01:35:00;;;;;;;22.58;15.27;;;;;;;;;;1041273;28;20132;-89
2021/01/24 01:35:31;;;;;;;27.10;15.20;;;;;;;;;;1044647;28;20047;-89
2021/01/24 01:36:03;;;;;;;22.92;15.27;;;;;;;;;;1040939;28;20049;-91
2021/01/24 01:36:34;;;;;;;22.85;13.75;;;;;;;;;;1037376;28;20112;-90
2021/01/24 01:37:05;;;;;;;18.15;11.82;;;;;;;;;;1040959;28;20051;-92
2021/01/24 01:37:40;;;;;;;19.35;12.77;;;;;;;;;;1045004;28;20044;-91
2021/01/24 01:38:11;;;;;;;21.25;11.07;;;;;;;;;;1036705;28;20075;-91
2021/01/24 01:38:43;;;;;;;18.73;13.55;;;;;;;;;;1043126;28;20392;-89
2021/01/24 01:39:14;;;;;;;22.33;12.30;;;;;;;;;;1040710;28;20132;-90
2021/01/24 01:39:45;;;;;;;21.27;13.10;;;;;;;;;;1040797;28;20136;-91
2021/01/24 01:40:16;;;;;;;24.05;12.07;;;;;;;;;;1039027;28;20116;-91
2021/01/24 01:40:52;;;;;;;21.85;12.32;;;;;;;;;;1044767;28;20134;-94
2021/01/24 01:41:33;;;;;;;14.77;10.45;;;;;;;;;;1040669;28;20053;-91
2021/01/24 01:42:12;;;;;;;19.10;12.23;;;;;;;;;;1042630;28;20041;-92
2021/01/24 01:42:43;;;;;;;16.48;11.32;;;;;;;;;;1041184;28;20111;-92
2021/01/24 01:43:14;;;;;;;20.67;12.95;;;;;;;;;;1037737;28;20592;-91
2021/01/24 01:43:45;;;;;;;20.67;13.18;;;;;;;;;;1045962;28;20125;-91
2021/01/24 01:44:16;;;;;;;26.98;14.80;;;;;;;;;;1036744;28;20053;-91
2021/01/24 01:44:50;;;;;;;18.60;13.55;;;;;;;;;;1036598;28;20193;-90
2021/01/24 01:45:21;;;;;;;23.38;13.18;;;;;;;;;;1040709;28;20084;-92
2021/01/24 01:45:52;;;;;;;19.92;12.68;;;;;;;;;;1040751;28;20092;-91
2021/01/24 01:46:25;;;;;;;17.92;13.07;;;;;;;;;;1040755;28;20045;-91
2021/01/24 01:46:56;;;;;;;19.60;12.80;;;;;;;;;;1037000;28;20050;-91
2021/01/24 01:47:29;;;;;;;19.60;13.00;;;;;;;;;;1032608;28;20050;-91
2021/01/24 01:48:01;;;;;;;18.08;13.40;;;;;;;;;;1036779;28;20092;-91
2021/01/24 01:48:32;;;;;;;18.02;12.38;;;;;;;;;;1037101;28;20058;-92
2021/01/24 01:49:03;;;;;;;19.65;12.68;;;;;;;;;;1036842;28;20084;-91
2021/01/24 01:49:35;;;;;;;19.35;12.77;;;;;;;;;;1036693;28;20072;-90
2021/01/24 01:50:06;;;;;;;20.27;13.32;;;;;;;;;;1036817;28;20129;-90
2021/01/24 01:50:37;;;;;;;21.70;12.95;;;;;;;;;;1037066;28;20057;-91
2021/01/24 01:51:08;;;;;;;20.60;13.55;;;;;;;;;;1038580;28;20088;-91
2021/01/24 01:51:39;;;;;;;20.33;12.70;;;;;;;;;;1036360;28;20046;-91
2021/01/24 01:52:10;;;;;;;20.75;13.85;;;;;;;;;;1044651;28;20072;-92
2021/01/24 01:52:45;;;;;;;21.35;13.23;;;;;;;;;;1040974;28;20057;-92
2021/01/24 01:53:18;;;;;;;26.00;14.57;;;;;;;;;;1043696;28;20071;-91
2021/01/24 01:53:49;;;;;;;19.70;13.23;;;;;;;;;;1040884;28;20046;-91
2021/01/24 01:54:20;;;;;;;21.33;13.18;;;;;;;;;;1032152;28;20077;-91
2021/01/24 01:54:52;;;;;;;14.70;9.90;;;;;;;;;;1039040;28;20056;-91
2021/01/24 01:55:24;;;;;;;18.73;9.82;;;;;;;;;;1040877;28;20489;-91
2021/01/24 01:55:55;;;;;;;15.10;9.55;;;;;;;;;;1032494;28;20137;-91
2021/01/24 01:56:29;;;;;;;16.40;9.73;;;;;;;;;;1032702;28;20092;-94
2021/01/24 01:57:00;;;;;;;19.17;10.52;;;;;;;;;;1040493;28;20119;-91
2021/01/24 01:57:33;;;;;;;18.13;10.50;;;;;;;;;;1040829;28;20128;-92
2021/01/24 01:58:05;;;;;;;18.98;11.85;;;;;;;;;;1036950;28;20104;-91
2021/01/24 01:58:36;;;;;;;22.95;11.25;;;;;;;;;;1040427;28;20136;-91
2021/01/24 01:59:07;;;;;;;17.30;12.10;;;;;;;;;;1040904;28;20136;-90
2021/01/24 01:59:41;;;;;;;15.18;9.77;;;;;;;;;;1040169;28;20041;-93
2021/01/24 02:00:12;;;;;;;15.77;9.38;;;;;;;;;;1037728;28;20117;-90
2021/01/24 02:00:43;;;;;;;14.18;9.38;;;;;;;;;;1037432;28;20054;-91
2021/01/24 02:01:35;;;;;;;18.20;9.88;;;;;;;;;;1045650;28;20132;-90
2021/01/24 02:02:40;;;;;;;18.35;10.90;;;;;;;;;;1040746;28;20457;-90
2021/01/24 02:03:34;;;;;;;19.30;11.00;;;;;;;;;;1042079;28;20410;-90
2021/01/24 02:04:13;;;;;;;16.15;10.30;;;;;;;;;;1040430;28;20080;-90
2021/01/24 02:04:53;;;;;;;16.02;11.15;;;;;;;;;;1039420;28;20536;-90
2021/01/24 02:05:42;;;;;;;21.20;11.95;;;;;;;;;;1036696;28;20102;-92
2021/01/24 02:06:27;;;;;;;20.13;11.82;;;;;;;;;;1046234;28;20091;-90
2021/01/24 02:07:02;;;;;;;19.77;12.05;;;;;;;;;;1049381;28;20123;-89
2021/01/24 02:07:44;;;;;;;18.33;11.65;;;;;;;;;;1048906;28;20476;-89
2021/01/24 02:08:26;;;;;;;20.08;11.90;;;;;;;;;;1048686;28;20078;-90
2021/01/24 02:09:20;;;;;;;21.20;13.07;;;;;;;;;;1044726;28;20080;-90
2021/01/24 02:10:13;;;;;;;21.25;12.27;;;;;;;;;;1049493;28;20139;-89
2021/01/24 02:10:51;;;;;;;23.08;12.68;;;;;;;;;;1044699;28;20044;-90
2021/01/24 02:11:44;;;;;;;18.80;12.07;;;;;;;;;;1044511;28;20052;-90
2021/01/24 02:12:28;;;;;;;17.75;12.10;;;;;;;;;;1048851;28;20052;-91
2021/01/24 02:13:05;;;;;;;15.48;12.05;;;;;;;;;;1042785;28;20041;-91
2021/01/24 02:13:49;;;;;;;20.25;12.05;;;;;;;;;;1045079;28;20049;-90
2021/01/24 02:14:27;;;;;;;22.23;12.27;;;;;;;;;;1042476;28;20048;-92
2021/01/24 02:15:03;;;;;;;21.70;12.68;;;;;;;;;;1043940;28;20049;-90
2021/01/24 02:15:36;;;;;;;20.60;13.15;;;;;;;;;;1040126;28;20049;-91
2021/01/24 02:16:07;;;;;;;22.08;13.73;;;;;;;;;;1041300;28;20061;-91
2021/01/24 02:16:40;;;;;;;20.50;12.40;;;;;;;;;;1041827;28;20038;-91
2021/01/24 02:17:13;;;;;;;21.58;13.23;;;;;;;;;;1041463;28;20498;-91
2021/01/24 02:17:50;;;;;;;20.80;13.20;;;;;;;;;;1047489;28;20071;-90
2021/01/24 02:18:21;;;;;;;24.52;14.18;;;;;;;;;;1040555;28;20119;-90
2021/01/24 02:18:53;;;;;;;24.33;15.50;;;;;;;;;;1036625;28;20118;-90
2021/01/24 02:19:37;;;;;;;24.45;14.35;;;;;;;;;;1044606;28;20048;-90
2021/01/24 02:20:23;;;;;;;26.67;14.48;;;;;;;;;;1042786;28;20045;-91
2021/01/24 02:21:12;;;;;;;18.02;12.45;;;;;;;;;;1048960;28;20048;-91
2021/01/24 02:21:44;;;;;;;23.10;13.65;;;;;;;;;;1048933;28;20147;-90
2021/01/24 02:22:16;;;;;;;22.08;13.07;;;;;;;;;;1044766;28;20074;-90
2021/01/24 02:22:48;;;;;;;23.92;13.40;;;;;;;;;;1044840;28;20060;-91
2021/01/24 02:23:21;;;;;;;27.98;16.13;;;;;;;;;;1042414;28;20045;-90
2021/01/24 02:23:53;;;;;;;22.63;14.35;;;;;;;;;;1041720;28;20132;-90
2021/01/24 02:24:26;;;;;;;25.15;14.43;;;;;;;;;;1040531;28;20045;-90
2021/01/24 02:25:12;;;;;;;22.80;15.20;;;;;;;;;;1041438;28;20481;-91
2021/01/24 02:25:51;;;;;;;22.08;13.48;;;;;;;;;;1034155;28;20562;-90
2021/01/24 02:26:44;;;;;;;21.38;14.35;;;;;;;;;;1040757;28;20565;-90
2021/01/24 02:27:20;;;;;;;24.75;13.30;;;;;;;;;;1041165;28;20048;-91
2021/01/24 02:28:05;;;;;;;22.13;13.18;;;;;;;;;;1048780;28;20139;-91
2021/01/24 02:28:53;;;;;;;25.05;13.95;;;;;;;;;;1047729;28;20093;-91
2021/01/24 02:29:32;;;;;;;21.80;13.40;;;;;;;;;;1041332;28;20053;-91
2021/01/24 02:30:23;;;;;;;22.90;13.80;;;;;;;;;;1041205;28;20087;-90
2021/01/24 02:30:54;;;;;;;26.85;14.43;;;;;;;;;;1040873;28;20136;-90
2021/01/24 02:31:26;;;;;;;21.73;13.98;;;;;;;;;;1041074;28;20049;-90
2021/01/24 02:31:59;;;;;;;27.02;15.30;;;;;;;;;;1044201;28;20071;-90
2021/01/24 02:32:31;;;;;;;26.90;14.45;;;;;;;;;;1033397;28;20086;-90
2021/01/24 02:33:23;;;;;;;25.73;15.57;;;;;;;;;;1036688;28;20053;-89
2021/01/24 02:33:55;;;;;;;26.90;14.98;;;;;;;;;;1041969;28;20049;-89
2021/01/24 02:34:29;;;;;;;21.25;13.93;;;;;;;;;;1036625;28;20132;-90
2021/01/24 02:35:02;;;;;;;22.13;15.57;;;;;;;;;;1036183;28;20192;-90
2021/01/24 02:35:39;;;;;;;27.58;16.58;;;;;;;;;;1039069;28;20073;-90
2021/01/24 02:36:11;;;;;;;25.45;14.18;;;;;;;;;;1036474;28;20100;-90
2021/01/24 02:36:43;;;;;;;21.90;14.40;;;;;;;;;;1036592;28;20049;-90
2021/01/24 02:37:15;;;;;;;24.30;15.98;;;;;;;;;;1044695;28;20045;-90
2021/01/24 02:37:46;;;;;;;25.38;15.82;;;;;;;;;;1048846;28;20398;-90
2021/01/24 02:38:19;;;;;;;26.45;15.95;;;;;;;;;;1048669;28;20048;-90
2021/01/24 02:38:50;;;;;;;22.75;14.98;;;;;;;;;;1040544;28;20094;-90
2021/01/24 02:39:25;;;;;;;25.27;15.65;;;;;;;;;;1044960;28;20509;-90
2021/01/24 02:39:57;;;;;;;25.23;15.40;;;;;;;;;;1040501;28;20045;-90
2021/01/24 02:40:30;;;;;;;28.25;16.02;;;;;;;;;;1044435;28;20051;-90
2021/01/24 02:41:14;;;;;;;24.60;14.70;;;;;;;;;;1040572;28;20131;-90
2021/01/24 02:41:45;;;;;;;20.75;14.55;;;;;;;;;;1032591;28;20050;-89
2021/01/24 02:42:16;;;;;;;23.65;14.60;;;;;;;;;;1039766;28;20098;-90
2021/01/24 02:42:50;;;;;;;23.48;14.40;;;;;;;;;;1044790;28;20056;-90
2021/01/24 02:43:22;;;;;;;23.35;15.40;;;;;;;;;;1036473;28;20133;-90
2021/01/24 02:43:54;;;;;;;23.75;15.35;;;;;;;;;;1039075;28;20076;-90
2021/01/24 02:44:25;;;;;;;25.40;15.25;;;;;;;;;;1036445;28;20046;-89
2021/01/24 02:44:57;;;;;;;24.60;15.07;;;;;;;;;;1040545;28;20053;-89
2021/01/24 02:45:29;;;;;;;29.17;16.75;;;;;;;;;;1036915;28;20053;-89
2021/01/24 02:46:01;;;;;;;24.10;14.95;;;;;;;;;;1040590;28;20159;-90
2021/01/24 02:46:32;;;;;;;23.75;15.45;;;;;;;;;;1037143;28;20477;-90
2021/01/24 02:47:04;;;;;;;23.88;15.30;;;;;;;;;;1040180;28;20045;-90
2021/01/24 02:47:37;;;;;;;25.52;16.13;;;;;;;;;;1036433;28;20132;-90
2021/01/24 02:48:09;;;;;;;21.92;15.65;;;;;;;;;;1036455;28;20423;-90
2021/01/24 02:48:44;;;;;;;28.40;15.73;;;;;;;;;;1039897;28;20145;-90
2021/01/24 02:49:16;;;;;;;22.73;15.82;;;;;;;;;;1048785;28;20044;-91
2021/01/24 02:49:49;;;;;;;21.02;14.32;;;;;;;;;;1040518;28;20057;-90
2021/01/24 02:50:22;;;;;;;23.17;14.82;;;;;;;;;;1036508;28;20053;-90
2021/01/24 02:50:54;;;;;;;24.10;14.40;;;;;;;;;;1036352;28;20196;-90
2021/01/24 02:51:25;;;;;;;25.48;16.70;;;;;;;;;;1036324;28;20057;-91
2021/01/24 02:51:57;;;;;;;26.85;16.10;;;;;;;;;;1033129;28;20054;-90
2021/01/24 02:52:29;;;;;;;25.65;15.07;;;;;;;;;;1043727;28;20048;-90
2021/01/24 02:53:00;;;;;;;23.45;14.45;;;;;;;;;;1040543;28;20046;-91
2021/01/24 02:53:34;;;;;;;21.02;14.38;;;;;;;;;;1036004;28;20042;-90
2021/01/24 02:54:06;;;;;;;22.90;15.20;;;;;;;;;;1043158;28;21765;-90
2021/01/24 02:54:37;;;;;;;31.63;15.95;;;;;;;;;;1044990;28;20127;-90
2021/01/24 02:55:09;;;;;;;25.00;13.85;;;;;;;;;;1037074;28;20566;-90
2021/01/24 02:55:40;;;;;;;21.55;14.23;;;;;;;;;;1036235;28;20085;-90
2021/01/24 02:56:11;;;;;;;21.98;15.43;;;;;;;;;;1032411;28;20042;-90
2021/01/24 02:56:43;;;;;;;25.35;14.60;;;;;;;;;;1039278;28;20046;-90
2021/01/24 02:57:14;;;;;;;21.88;13.68;;;;;;;;;;1040720;28;20095;-89
2021/01/24 02:57:45;;;;;;;25.42;14.48;;;;;;;;;;1040385;28;20065;-90
2021/01/24 02:58:19;;;;;;;26.42;14.60;;;;;;;;;;1042970;28;20060;-90
2021/01/24 02:58:50;;;;;;;21.73;14.48;;;;;;;;;;1040554;28;20167;-89
2021/01/24 02:59:21;;;;;;;22.13;15.00;;;;;;;;;;1047367;28;20051;-90
2021/01/24 02:59:52;;;;;;;23.80;14.30;;;;;;;;;;1048259;28;20084;-90
2021/01/24 03:00:24;;;;;;;23.15;15.23;;;;;;;;;;1044569;28;20056;-89
2021/01/24 03:00:55;;;;;;;21.30;13.65;;;;;;;;;;1040433;28;20046;-89
2021/01/24 03:01:27;;;;;;;20.95;14.23;;;;;;;;;;1040880;28;20059;-90
2021/01/24 03:01:58;;;;;;;24.98;14.50;;;;;;;;;;1040627;28;20049;-90
2021/01/24 03:02:29;;;;;;;27.25;15.82;;;;;;;;;;1039474;28;20050;-90
2021/01/24 03:03:00;;;;;;;24.67;15.07;;;;;;;;;;1043228;28;20548;-90
2021/01/24 03:03:34;;;;;;;23.13;13.15;;;;;;;;;;1036283;28;20050;-90
2021/01/24 03:04:07;;;;;;;25.73;15.02;;;;;;;;;;1040362;28;20506;-89
2021/01/24 03:04:38;;;;;;;23.52;15.65;;;;;;;;;;1040556;28;20049;-89
2021/01/24 03:05:10;;;;;;;23.25;15.32;;;;;;;;;;1041327;28;20544;-90
2021/01/24 03:05:41;;;;;;;22.60;13.98;;;;;;;;;;1040346;28;20049;-89
2021/01/24 03:06:12;;;;;;;25.10;15.20;;;;;;;;;;1042552;28;20158;-89
2021/01/24 03:06:43;;;;;;;24.52;15.23;;;;;;;;;;1040359;28;20052;-90
2021/01/24 03:07:14;;;;;;;25.95;16.25;;;;;;;;;;1048759;28;20055;-90
2021/01/24 03:07:46;;;;;;;23.08;15.55;;;;;;;;;;1041035;28;20111;-88
2021/01/24 03:08:18;;;;;;;22.13;14.95;;;;;;;;;;1040565;28;20057;-90
2021/01/24 03:08:49;;;;;;;24.35;15.90;;;;;;;;;;1036323;28;20050;-90
2021/01/24 03:09:20;;;;;;;21.58;14.70;;;;;;;;;;1035016;28;20054;-90
2021/01/24 03:09:51;;;;;;;25.38;14.25;;;;;;;;;;1038641;28;20045;-88
2021/01/24 03:10:23;;;;;;;24.30;15.85;;;;;;;;;;1039619;28;20053;-89
2021/01/24 03:10:54;;;;;;;22.55;14.80;;;;;;;;;;1040761;28;20049;-89
2021/01/24 03:11:25;;;;;;;25.33;15.13;;;;;;;;;;1045097;28;20083;-89
2021/01/24 03:11:58;;;;;;;23.00;14.27;;;;;;;;;;1040660;28;20390;-89
2021/01/24 03:12:33;;;;;;;20.65;14.95;;;;;;;;;;1036297;28;20084;-90